Time;durP1;ratioP1;P1;durP2;ratioP2;P2;SDS_P1;SDS_P2;PMS_P1;PMS_P2;Temp;Humidity;BMP_temperature;BMP_pressure;BME280_temperature;BME280_humidity;BME280_pressure;Samples;Min_cycle;Max_cycle;Signal;HPM_P1;HPM_P2
2020/12/14 00:00:07;;;;;;;23.45;12.43;;;;;;;4.66;100.00;100866.41;6209834;28;20046;-69
2020/12/14 00:03:08;;;;;;;20.80;11.20;;;;;;;4.64;100.00;100875.16;6211281;28;20057;-69
2020/12/14 00:06:08;;;;;;;21.67;11.30;;;;;;;4.63;100.00;100870.84;6208631;28;20049;-68
2020/12/14 00:09:10;;;;;;;24.23;12.40;;;;;;;4.67;100.00;100865.50;6210685;28;21393;-68
2020/12/14 00:12:11;;;;;;;20.23;11.77;;;;;;;4.69;100.00;100865.47;6208827;28;20054;-68
2020/12/14 00:15:12;;;;;;;26.15;11.80;;;;;;;4.62;100.00;100864.78;6210736;28;20058;-69
2020/12/14 00:18:13;;;;;;;19.80;10.02;;;;;;;4.77;100.00;100858.31;6208350;28;20488;-69
2020/12/14 00:21:17;;;;;;;20.98;10.95;;;;;;;4.68;100.00;100851.63;6210046;28;20418;-69
2020/12/14 00:24:19;;;;;;;19.27;10.85;;;;;;;4.67;100.00;100859.44;6210138;28;20524;-69
2020/12/14 00:27:19;;;;;;;22.52;10.30;;;;;;;4.65;100.00;100864.72;6209218;28;20152;-69
2020/12/14 00:30:20;;;;;;;16.98;9.65;;;;;;;4.65;100.00;100869.91;6209313;28;20054;-69
2020/12/14 00:33:21;;;;;;;19.67;10.77;;;;;;;4.86;100.00;100867.59;6209216;28;20551;-69
2020/12/14 00:36:22;;;;;;;17.33;9.52;;;;;;;4.73;100.00;100854.94;6211922;28;20042;-69
2020/12/14 00:39:23;;;;;;;15.15;8.82;;;;;;;4.85;100.00;100838.13;6209150;28;20180;-69
2020/12/14 00:42:24;;;;;;;15.73;9.07;;;;;;;4.78;100.00;100840.03;6209191;28;20046;-69
2020/12/14 00:45:25;;;;;;;16.92;8.65;;;;;;;4.82;100.00;100833.88;6209351;28;20521;-69
2020/12/14 00:48:26;;;;;;;17.60;9.48;;;;;;;4.71;99.85;100840.25;6208926;28;20573;-69
2020/12/14 00:51:27;;;;;;;20.42;9.93;;;;;;;4.74;99.90;100835.81;6208448;28;20053;-69
2020/12/14 00:54:29;;;;;;;16.25;8.98;;;;;;;4.74;100.00;100819.34;6209900;28;20051;-69
2020/12/14 00:57:30;;;;;;;15.75;8.10;;;;;;;4.65;100.00;100814.41;6208248;28;20041;-69
2020/12/14 01:00:31;;;;;;;21.95;9.10;;;;;;;4.61;99.53;100813.63;6209460;28;20073;-69
2020/12/14 01:03:32;;;;;;;19.73;9.50;;;;;;;4.66;99.81;100814.34;6208346;28;20049;-69
2020/12/14 01:06:32;;;;;;;15.98;8.70;;;;;;;4.54;99.13;100804.28;6209883;28;20049;-69
2020/12/14 01:09:34;;;;;;;19.00;10.10;;;;;;;4.46;99.43;100796.69;6207113;28;20050;-69
2020/12/14 01:12:35;;;;;;;20.33;8.80;;;;;;;4.47;100.00;100801.00;6207757;28;20077;-69
2020/12/14 01:15:36;;;;;;;17.52;9.75;;;;;;;4.45;99.29;100795.00;6210086;28;20054;-69
2020/12/14 01:18:37;;;;;;;18.33;9.52;;;;;;;4.44;99.70;100801.06;6207013;28;20043;-69
2020/12/14 01:21:38;;;;;;;16.13;10.02;;;;;;;4.40;99.63;100799.44;6209485;28;20099;-69
2020/12/14 01:24:39;;;;;;;26.33;9.50;;;;;;;4.37;99.36;100798.69;6208180;28;20423;-68
2020/12/14 01:27:40;;;;;;;20.48;9.77;;;;;;;4.30;99.64;100803.19;6208941;28;20048;-69
2020/12/14 01:30:41;;;;;;;15.52;9.68;;;;;;;4.32;99.99;100807.47;6207383;28;20450;-69
2020/12/14 01:33:42;;;;;;;24.60;9.65;;;;;;;4.35;99.13;100801.31;6209368;28;20057;-69
2020/12/14 01:36:47;;;;;;;21.30;8.77;;;;;;;4.32;98.68;100804.03;6207931;28;20144;-69
2020/12/14 01:39:48;;;;;;;16.10;9.05;;;;;;;4.33;99.15;100808.31;6207797;28;20425;-69
2020/12/14 01:42:49;;;;;;;18.98;10.05;;;;;;;4.32;98.79;100806.63;6209676;28;20054;-69
2020/12/14 01:45:50;;;;;;;19.45;9.80;;;;;;;4.36;98.56;100809.97;6212614;28;20131;-69
2020/12/14 01:48:51;;;;;;;22.38;9.82;;;;;;;4.57;97.43;100809.41;6213350;28;20050;-69
2020/12/14 01:51:52;;;;;;;17.33;9.40;;;;;;;4.65;97.40;100811.78;6212164;28;20502;-69
2020/12/14 01:54:56;;;;;;;17.67;8.30;;;;;;;4.71;96.57;100806.41;6214068;28;20053;-69
2020/12/14 01:57:57;;;;;;;15.35;9.02;;;;;;;4.63;96.66;100803.16;6211533;28;20046;-69
2020/12/14 02:00:58;;;;;;;16.65;8.73;;;;;;;4.69;96.30;100795.19;6211256;28;20430;-69
2020/12/14 02:03:59;;;;;;;13.75;8.23;;;;;;;4.70;95.79;100799.50;6213852;28;20141;-69
2020/12/14 02:06:59;;;;;;;14.30;7.70;;;;;;;4.72;95.88;100797.69;6211826;28;20038;-69
2020/12/14 02:10:01;;;;;;;17.48;7.72;;;;;;;4.79;94.98;100787.06;6212931;28;20136;-69
2020/12/14 02:13:02;;;;;;;15.77;7.22;;;;;;;4.77;94.23;100785.44;6212406;28;20050;-69
2020/12/14 02:16:03;;;;;;;15.57;8.18;;;;;;;4.83;95.25;100769.63;6212486;28;20045;-70
2020/12/14 02:19:04;;;;;;;14.93;7.50;;;;;;;4.69;95.63;100769.16;6211783;28;20788;-68
2020/12/14 02:22:05;;;;;;;12.40;7.00;;;;;;;4.76;94.12;100762.88;6216361;28;20521;-69
2020/12/14 02:25:08;;;;;;;14.57;7.18;;;;;;;4.64;95.42;100758.03;6224911;28;20058;-69
2020/12/14 02:28:08;;;;;;;14.70;7.13;;;;;;;4.51;95.91;100765.34;6225046;28;20053;-69
2020/12/14 02:31:09;;;;;;;13.52;6.45;;;;;;;4.58;95.53;100759.06;6224600;28;20132;-69
2020/12/14 02:34:10;;;;;;;14.73;6.05;;;;;;;4.58;95.11;100759.06;6224872;28;20053;-69
2020/12/14 02:37:14;;;;;;;15.68;6.18;;;;;;;4.63;94.52;100751.09;6224315;28;20046;-69
2020/12/14 02:40:16;;;;;;;10.60;5.30;;;;;;;4.53;94.65;100755.72;6224238;28;20053;-69
2020/12/14 02:43:17;;;;;;;11.52;5.22;;;;;;;4.62;94.37;100747.66;6224562;28;20072;-69
2020/12/14 02:46:18;;;;;;;11.63;6.13;;;;;;;4.58;93.64;100744.28;6224390;28;20053;-69
2020/12/14 02:49:18;;;;;;;15.07;5.85;;;;;;;4.49;94.58;100741.94;6223915;28;20510;-69
2020/12/14 02:52:19;;;;;;;10.13;4.95;;;;;;;4.45;94.21;100734.28;6224189;28;20050;-69
2020/12/14 02:55:21;;;;;;;11.60;5.20;;;;;;;4.38;95.14;100733.59;6224184;28;20058;-69
2020/12/14 02:58:22;;;;;;;10.85;5.28;;;;;;;4.51;93.83;100729.75;6223970;28;20068;-70
2020/12/14 03:01:23;;;;;;;7.82;4.65;;;;;;;4.53;93.87;100724.50;6223655;28;20049;-69
2020/12/14 03:04:24;;;;;;;16.30;5.57;;;;;;;4.55;94.62;100733.97;6224354;28;20053;-69
2020/12/14 03:07:25;;;;;;;12.18;5.65;;;;;;;4.58;94.40;100733.88;6223817;28;20061;-69
2020/12/14 03:10:26;;;;;;;9.55;5.13;;;;;;;4.55;94.95;100735.72;6223466;28;20054;-69
2020/12/14 03:13:27;;;;;;;15.05;5.03;;;;;;;4.77;94.40;100728.16;6223996;28;20052;-69
2020/12/14 03:16:28;;;;;;;12.27;5.43;;;;;;;4.84;93.78;100714.03;6223512;28;20054;-70
2020/12/14 03:19:29;;;;;;;10.07;5.47;;;;;;;4.74;94.38;100721.28;6223020;28;20445;-70
2020/12/14 03:22:29;;;;;;;11.77;5.47;;;;;;;4.64;94.50;100722.47;6223010;28;20050;-69
2020/12/14 03:25:31;;;;;;;15.57;5.30;;;;;;;4.74;94.44;100721.28;6223811;28;20053;-69
2020/12/14 03:28:32;;;;;;;13.27;5.10;;;;;;;4.90;93.56;100720.81;6223195;28;20046;-69
2020/12/14 03:31:33;;;;;;;17.38;5.20;;;;;;;4.77;93.33;100728.16;6221232;28;20139;-69
2020/12/14 03:34:34;;;;;;;8.65;5.10;;;;;;;4.73;94.58;100722.19;6223383;28;20068;-69
2020/12/14 03:37:35;;;;;;;13.57;5.30;;;;;;;4.81;92.57;100708.91;6222693;28;20046;-69
2020/12/14 03:40:36;;;;;;;11.45;5.07;;;;;;;4.72;93.89;100709.19;6223043;28;20104;-70
2020/12/14 03:43:37;;;;;;;11.80;5.28;;;;;;;4.89;94.04;100701.72;6223024;28;20050;-69
2020/12/14 03:46:38;;;;;;;10.85;4.93;;;;;;;4.79;93.53;100711.56;6223201;28;20046;-69
2020/12/14 03:49:39;;;;;;;11.23;4.75;;;;;;;4.85;93.40;100705.31;6222197;28;20049;-69
2020/12/14 03:52:39;;;;;;;10.65;4.55;;;;;;;4.79;94.05;100708.13;6223173;28;20057;-69
2020/12/14 03:55:41;;;;;;;11.38;5.45;;;;;;;4.73;94.40;100701.34;6222986;28;20088;-69
2020/12/14 03:58:42;;;;;;;15.18;5.25;;;;;;;4.73;94.04;100703.97;6221620;28;20042;-70
2020/12/14 04:01:44;;;;;;;11.45;4.82;;;;;;;4.76;94.54;100711.66;6222947;28;20062;-69
2020/12/14 04:04:45;;;;;;;13.20;4.63;;;;;;;4.72;93.44;100719.59;6222737;28;20487;-69
2020/12/14 04:07:46;;;;;;;13.52;5.10;;;;;;;4.76;92.83;100703.00;6222102;28;20053;-69
2020/12/14 04:10:48;;;;;;;11.48;4.43;;;;;;;4.83;92.67;100708.00;6222188;28;20325;-69
2020/12/14 04:13:50;;;;;;;12.68;4.63;;;;;;;4.86;93.13;100698.38;6222425;28;20430;-69
2020/12/14 04:16:51;;;;;;;8.57;4.20;;;;;;;4.72;93.74;100699.63;6222152;28;20570;-69
2020/12/14 04:19:52;;;;;;;9.82;4.22;;;;;;;4.81;93.93;100699.38;6221580;28;20054;-66
2020/12/14 04:22:53;;;;;;;10.25;4.82;;;;;;;4.80;93.59;100697.66;6222532;28;20670;-67
2020/12/14 04:25:55;;;;;;;9.35;4.78;;;;;;;4.83;93.23;100702.78;6221872;28;20050;-67
2020/12/14 04:28:56;;;;;;;12.25;5.07;;;;;;;4.75;93.33;100689.13;6221961;28;20087;-66
2020/12/14 04:31:57;;;;;;;13.20;4.10;;;;;;;4.75;93.18;100683.94;6222123;28;20133;-67
2020/12/14 04:34:57;;;;;;;9.25;4.72;;;;;;;4.98;93.86;100672.81;6221991;28;20561;-67
2020/12/14 04:37:58;;;;;;;14.98;4.50;;;;;;;4.89;93.19;100677.44;6221597;28;20461;-66
2020/12/14 04:41:03;;;;;;;8.45;4.80;;;;;;;4.87;92.90;100674.06;6221854;28;20426;-67
2020/12/14 04:44:04;;;;;;;10.60;3.90;;;;;;;4.94;92.58;100671.19;6222025;28;20050;-67
2020/12/14 04:47:09;;;;;;;7.75;3.90;;;;;;;4.90;92.35;100671.34;6221958;28;20042;-67
2020/12/14 04:50:10;;;;;;;9.73;4.85;;;;;;;4.87;93.12;100669.69;6221199;28;20568;-67
2020/12/14 04:53:11;;;;;;;8.15;4.75;;;;;;;4.92;92.83;100661.75;6222040;28;20057;-68
2020/12/14 04:56:17;;;;;;;11.63;4.63;;;;;;;4.98;93.34;100675.41;6221627;28;20054;-67
2020/12/14 04:59:18;;;;;;;8.77;4.18;;;;;;;4.92;92.61;100670.41;6221297;28;20052;-67
2020/12/14 05:02:18;;;;;;;10.98;4.65;;;;;;;4.96;92.61;100666.81;6221845;28;20093;-67
2020/12/14 05:05:19;;;;;;;12.43;4.80;;;;;;;4.88;92.62;100655.78;6221768;28;20054;-67
2020/12/14 05:08:24;;;;;;;12.63;4.70;;;;;;;4.88;92.89;100662.75;6221412;28;20042;-67
2020/12/14 05:11:34;;;;;;;12.82;5.28;;;;;;;4.88;92.97;100666.19;6221131;28;20057;-67
2020/12/14 05:14:35;;;;;;;8.43;4.55;;;;;;;4.88;93.42;100657.53;6221740;28;20532;-66
2020/12/14 05:17:36;;;;;;;12.40;5.22;;;;;;;4.90;93.59;100660.91;6221219;28;20053;-68
2020/12/14 05:20:38;;;;;;;15.93;5.40;;;;;;;4.98;93.32;100651.97;6226072;28;20046;-67
2020/12/14 05:23:39;;;;;;;10.98;5.18;;;;;;;5.14;92.89;100660.16;6226415;28;20058;-67
2020/12/14 05:26:41;;;;;;;11.38;4.90;;;;;;;5.03;92.62;100660.47;6226255;28;20057;-67
2020/12/14 05:29:42;;;;;;;16.27;5.13;;;;;;;5.04;93.13;100659.59;6225769;28;20128;-67
2020/12/14 05:32:43;;;;;;;9.90;4.95;;;;;;;5.13;90.54;100660.19;6226234;28;20241;-67
2020/12/14 05:35:45;;;;;;;12.80;5.20;;;;;;;5.19;90.98;100655.66;6226094;28;20056;-66
2020/12/14 05:38:45;;;;;;;14.88;5.43;;;;;;;5.14;90.93;100648.88;6225087;28;20049;-66
2020/12/14 05:41:48;;;;;;;11.98;5.22;;;;;;;5.28;91.41;100654.50;6226059;28;20523;-67
2020/12/14 05:44:49;;;;;;;12.38;4.57;;;;;;;5.41;89.97;100658.41;6225929;28;20057;-67
2020/12/14 05:47:50;;;;;;;10.02;4.85;;;;;;;5.30;90.88;100644.88;6225275;28;20053;-69
2020/12/14 05:50:53;;;;;;;15.52;4.55;;;;;;;5.23;91.12;100640.78;6225237;28;20072;-69
2020/12/14 05:53:57;;;;;;;11.02;4.43;;;;;;;5.20;90.55;100641.72;6225777;28;20057;-69
2020/12/14 05:57:01;;;;;;;9.60;4.05;;;;;;;5.26;91.00;100638.03;6225341;28;20050;-69
2020/12/14 06:00:05;;;;;;;10.85;3.78;;;;;;;5.37;90.93;100642.91;6225071;28;20057;-69
2020/12/14 06:03:07;;;;;;;7.15;3.75;;;;;;;5.38;90.48;100636.81;6225344;28;20494;-70
2020/12/14 06:06:09;;;;;;;10.10;4.13;;;;;;;5.33;90.43;100648.22;6225030;28;20422;-69
2020/12/14 06:09:15;;;;;;;9.23;3.60;;;;;;;5.27;91.02;100642.38;6224926;28;20061;-69
2020/12/14 06:12:29;;;;;;;12.02;3.63;;;;;;;5.29;90.08;100641.41;6225189;28;20057;-69
2020/12/14 06:15:31;;;;;;;12.68;4.88;;;;;;;5.19;90.91;100639.16;6224847;28;20057;-69
2020/12/14 06:18:33;;;;;;;11.05;3.70;;;;;;;5.30;90.11;100645.72;6224531;28;20054;-69
2020/12/14 06:21:40;;;;;;;8.90;4.55;;;;;;;5.24;91.02;100640.72;6224746;28;20133;-70
2020/12/14 06:24:42;;;;;;;8.98;3.63;;;;;;;5.18;91.14;100643.53;6224823;28;20054;-69
2020/12/14 06:27:44;;;;;;;12.48;3.55;;;;;;;5.28;90.38;100644.06;6209934;28;20042;-70
2020/12/14 06:30:52;;;;;;;10.57;3.60;;;;;;;5.37;89.84;100642.91;6213161;28;20050;-70
2020/12/14 06:33:53;;;;;;;11.35;3.67;;;;;;;5.46;88.38;100642.63;6222342;28;20050;-70
2020/12/14 06:36:54;;;;;;;9.55;3.50;;;;;;;5.45;88.79;100638.28;6224267;28;20416;-70
2020/12/14 06:39:58;;;;;;;5.00;2.63;;;;;;;5.41;89.16;100631.50;6224427;28;20058;-69
2020/12/14 06:42:59;;;;;;;11.52;2.95;;;;;;;5.41;89.87;100634.94;6224313;28;20045;-70
2020/12/14 06:46:02;;;;;;;8.85;3.47;;;;;;;5.38;88.72;100634.19;6224438;28;20061;-69
2020/12/14 06:49:03;;;;;;;11.88;4.53;;;;;;;5.38;89.04;100636.81;6223787;28;20053;-70
2020/12/14 06:52:04;;;;;;;10.63;2.90;;;;;;;5.49;87.35;100630.31;6224494;28;20053;-70
2020/12/14 06:55:05;;;;;;;11.05;2.58;;;;;;;5.50;88.77;100628.56;6224314;28;20657;-69
2020/12/14 06:58:08;;;;;;;9.90;2.75;;;;;;;5.46;87.53;100630.44;6224074;28;20129;-70
2020/12/14 07:01:35;;;;;;;8.57;2.67;;;;;;;5.47;87.35;100629.53;6223768;28;20042;-69
2020/12/14 07:04:38;;;;;;;9.18;2.90;;;;;;;5.51;87.45;100622.44;6219377;28;20061;-70
2020/12/14 07:07:39;;;;;;;6.65;2.80;;;;;;;5.40;88.86;100633.22;6206249;28;20057;-69
2020/12/14 07:10:40;;;;;;;6.03;2.70;;;;;;;5.51;87.50;100627.66;6223602;28;20498;-68
2020/12/14 07:13:42;;;;;;;9.85;3.30;;;;;;;5.63;86.98;100631.59;6208216;28;20054;-68
2020/12/14 07:16:44;;;;;;;8.63;2.90;;;;;;;5.61;87.11;100634.25;6199008;28;20061;-67
2020/12/14 07:19:46;;;;;;;8.30;3.40;;;;;;;5.68;87.29;100647.91;6199053;28;20046;-67
2020/12/14 07:22:49;;;;;;;13.95;3.15;;;;;;;5.61;86.60;100636.88;6219176;28;20411;-68
2020/12/14 07:25:50;;;;;;;6.68;2.90;;;;;;;5.62;86.02;100651.59;6223716;28;20061;-67
2020/12/14 07:28:54;;;;;;;7.35;2.60;;;;;;;5.61;86.70;100649.91;6222794;28;20054;-67
2020/12/14 07:31:55;;;;;;;6.47;2.28;;;;;;;5.67;86.46;100661.88;6223593;28;20056;-67
2020/12/14 07:34:56;;;;;;;9.30;3.47;;;;;;;5.67;87.73;100644.47;6223387;28;20671;-68
2020/12/14 07:37:57;;;;;;;6.60;2.88;;;;;;;5.59;88.32;100646.50;6222989;28;20052;-67
2020/12/14 07:41:07;;;;;;;6.88;2.70;;;;;;;5.56;88.83;100646.59;6221710;28;20046;-67
2020/12/14 07:44:09;;;;;;;7.32;2.47;;;;;;;5.63;87.09;100636.78;6223411;28;20057;-68
2020/12/14 07:47:20;;;;;;;7.80;2.30;;;;;;;5.53;87.90;100639.72;6222637;28;20049;-67
2020/12/14 07:50:22;;;;;;;8.65;2.35;;;;;;;5.63;87.91;100634.19;6222853;28;20069;-66
2020/12/14 07:53:23;;;;;;;6.80;2.70;;;;;;;5.60;88.32;100630.81;6223002;28;20072;-67
2020/12/14 07:56:24;;;;;;;5.10;2.47;;;;;;;5.76;86.77;100638.06;6223068;28;20054;-67
2020/12/14 07:59:27;;;;;;;5.78;2.85;;;;;;;5.82;86.96;100640.50;6222469;28;20061;-67
2020/12/14 08:02:29;;;;;;;7.03;2.40;;;;;;;5.75;88.01;100645.06;6222949;28;20045;-66
2020/12/14 08:05:30;;;;;;;7.60;2.40;;;;;;;5.85;86.20;100648.19;6222693;28;20058;-66
2020/12/14 08:08:32;;;;;;;5.68;2.08;;;;;;;5.85;87.28;100645.56;6222306;28;20053;-66
2020/12/14 08:11:34;;;;;;;7.68;2.20;;;;;;;5.99;84.63;100627.69;6222132;28;20058;-67
2020/12/14 08:14:36;;;;;;;7.03;2.45;;;;;;;6.00;84.70;100631.19;6222580;28;20054;-67
2020/12/14 08:17:39;;;;;;;10.38;2.50;;;;;;;5.89;87.13;100633.28;6222325;28;20495;-67
2020/12/14 08:20:41;;;;;;;4.45;2.10;;;;;;;6.04;87.11;100628.41;6221934;28;20549;-66
2020/12/14 08:23:42;;;;;;;6.03;2.47;;;;;;;6.00;87.80;100619.00;6222670;28;20052;-67
2020/12/14 08:26:43;;;;;;;4.35;2.20;;;;;;;5.96;87.82;100629.59;6221569;28;20423;-66
2020/12/14 08:30:01;;;;;;;5.88;2.38;;;;;;;6.16;87.89;100623.63;6221880;28;20605;-67
2020/12/14 08:33:06;;;;;;;5.25;2.70;;;;;;;6.10;87.59;100630.78;6200446;28;20054;-67
2020/12/14 08:36:09;;;;;;;9.00;2.10;;;;;;;6.19;87.50;100628.75;6216436;28;20053;-67
2020/12/14 08:39:12;;;;;;;6.55;1.83;;;;;;;6.12;87.20;100629.88;6207354;28;20566;-67
2020/12/14 08:42:14;;;;;;;8.18;2.35;;;;;;;6.20;86.12;100635.66;6210422;28;20049;-67
2020/12/14 08:45:17;;;;;;;5.30;2.22;;;;;;;6.48;85.27;100625.88;6208761;28;20511;-67
2020/12/14 08:48:18;;;;;;;7.93;2.25;;;;;;;6.35;86.69;100622.88;6209220;28;20041;-66
2020/12/14 08:51:20;;;;;;;7.28;2.20;;;;;;;6.35;86.88;100622.88;6208767;28;20423;-67
2020/12/14 08:54:22;;;;;;;7.40;2.42;;;;;;;6.39;86.80;100622.78;6209021;28;20049;-67
2020/12/14 08:57:24;;;;;;;6.28;2.13;;;;;;;6.53;86.68;100623.09;6209309;28;20070;-67
2020/12/14 09:00:26;;;;;;;8.77;1.98;;;;;;;6.54;84.93;100615.22;6200309;28;20050;-68
2020/12/14 09:03:27;;;;;;;2.83;1.80;;;;;;;6.51;87.36;100617.94;6213733;28;20426;-67
2020/12/14 09:06:29;;;;;;;8.25;2.33;;;;;;;6.50;87.00;100618.00;6221299;28;20057;-66
2020/12/14 09:09:32;;;;;;;6.30;1.80;;;;;;;6.68;85.89;100622.50;6220367;28;20056;-66
2020/12/14 09:12:33;;;;;;;4.78;2.13;;;;;;;6.78;85.02;100630.84;6216406;28;20049;-66
2020/12/14 09:15:35;;;;;;;3.90;1.88;;;;;;;6.74;85.43;100631.84;6209549;28;20046;-66
2020/12/14 09:18:43;;;;;;;9.73;2.20;;;;;;;6.95;85.81;100632.75;6213440;28;20411;-67
2020/12/14 09:21:44;;;;;;;7.20;2.13;;;;;;;6.97;85.17;100626.56;6211946;28;20062;-67
2020/12/14 09:24:45;;;;;;;8.00;2.00;;;;;;;6.95;86.04;100624.91;6209692;28;20125;-68
2020/12/14 09:27:46;;;;;;;2.67;1.60;;;;;;;7.02;84.84;100626.38;6212256;28;20054;-67
2020/12/14 09:30:47;;;;;;;5.28;1.85;;;;;;;7.03;85.93;100631.53;6206862;28;20046;-67
2020/12/14 09:33:48;;;;;;;4.05;2.10;;;;;;;6.97;84.89;100644.84;6208948;28;20418;-67
2020/12/14 09:36:50;;;;;;;7.40;1.77;;;;;;;6.99;84.89;100642.16;6212766;28;20051;-67
2020/12/14 09:39:51;;;;;;;5.80;2.20;;;;;;;6.97;84.61;100631.78;6209116;28;20061;-68
2020/12/14 09:42:52;;;;;;;9.50;1.88;;;;;;;7.08;84.50;100634.81;6207689;28;20053;-68
2020/12/14 09:45:53;;;;;;;5.63;2.22;;;;;;;6.99;85.05;100634.34;6201568;28;20054;-68
2020/12/14 09:48:55;;;;;;;8.15;1.67;;;;;;;7.20;84.59;100636.09;6196474;28;20419;-68
2020/12/14 09:51:56;;;;;;;4.97;2.40;;;;;;;7.30;85.41;100634.78;6216106;28;20050;-68
2020/12/14 09:54:57;;;;;;;7.18;2.47;;;;;;;7.20;85.90;100638.69;6219924;28;20490;-68
2020/12/14 09:57:58;;;;;;;4.72;2.03;;;;;;;7.26;85.15;100640.19;6206881;28;20510;-69
2020/12/14 10:00:59;;;;;;;10.48;1.95;;;;;;;7.17;85.20;100648.41;6196018;28;20061;-68
2020/12/14 10:04:00;;;;;;;5.60;1.90;;;;;;;7.11;86.39;100634.69;6205385;28;20061;-69
2020/12/14 10:07:01;;;;;;;5.00;2.10;;;;;;;7.21;85.80;100629.94;6210716;28;20058;-68
2020/12/14 10:10:03;;;;;;;2.60;1.70;;;;;;;7.21;85.21;100635.16;6213412;28;20129;-70
2020/12/14 10:13:05;;;;;;;7.75;2.00;;;;;;;7.20;86.38;100635.22;6211575;28;20127;-68
2020/12/14 10:16:07;;;;;;;5.38;2.20;;;;;;;7.11;86.90;100639.91;6213164;28;20048;-69
2020/12/14 10:19:08;;;;;;;5.97;1.83;;;;;;;7.19;86.80;100639.63;6211263;28;20488;-68
2020/12/14 10:22:09;;;;;;;7.30;2.10;;;;;;;7.41;86.24;100630.88;6212759;28;20057;-68
2020/12/14 10:25:10;;;;;;;6.45;2.20;;;;;;;7.44;86.38;100631.59;6223453;28;20053;-67
2020/12/14 10:28:10;;;;;;;11.20;1.95;;;;;;;7.43;87.44;100632.50;6220554;28;20075;-67
2020/12/14 10:31:12;;;;;;;3.55;1.80;;;;;;;7.54;87.47;100627.69;6211242;28;20542;-68
2020/12/14 10:34:13;;;;;;;4.72;1.52;;;;;;;7.59;87.17;100630.09;6211889;28;20049;-69
2020/12/14 10:37:14;;;;;;;4.97;1.85;;;;;;;7.54;87.98;100638.16;6211771;28;20128;-67
2020/12/14 10:40:15;;;;;;;6.07;2.17;;;;;;;7.55;89.05;100641.59;6205976;28;20659;-67
2020/12/14 10:43:16;;;;;;;5.38;1.80;;;;;;;7.35;89.64;100643.28;6202031;28;20049;-67
2020/12/14 10:46:17;;;;;;;6.43;2.95;;;;;;;7.49;89.80;100644.47;6211111;28;20132;-69
2020/12/14 10:49:19;;;;;;;3.05;1.63;;;;;;;7.38;91.69;100656.22;6211915;28;20129;-70
2020/12/14 10:52:20;;;;;;;4.82;1.98;;;;;;;7.31;93.45;100653.91;6210797;28;20046;-67
2020/12/14 10:55:21;;;;;;;7.68;2.10;;;;;;;7.33;94.77;100652.13;6210402;28;20050;-68
2020/12/14 10:58:22;;;;;;;6.70;2.38;;;;;;;7.24;95.30;100653.34;6209833;28;20041;-68
2020/12/14 11:01:23;;;;;;;7.47;2.40;;;;;;;7.11;95.69;100655.59;6211617;28;20053;-67
2020/12/14 11:04:24;;;;;;;10.85;2.70;;;;;;;7.32;96.93;100647.81;6212187;28;20415;-67
2020/12/14 11:07:25;;;;;;;2.97;1.70;;;;;;;7.30;96.34;100636.53;6210009;28;20050;-68
2020/12/14 11:10:26;;;;;;;7.60;2.72;;;;;;;7.23;96.78;100629.88;6223179;28;20056;-68
2020/12/14 11:13:27;;;;;;;6.57;2.50;;;;;;;7.22;97.62;100628.16;6223702;28;20073;-68
2020/12/14 11:16:30;;;;;;;7.75;2.08;;;;;;;7.24;97.42;100629.81;6223614;28;20458;-67
2020/12/14 11:19:31;;;;;;;7.13;2.60;;;;;;;7.22;97.60;100636.00;6222733;28;20081;-67
2020/12/14 11:22:32;;;;;;;6.47;2.50;;;;;;;7.34;97.40;100630.28;6223721;28;20046;-68
2020/12/14 11:25:32;;;;;;;4.50;2.42;;;;;;;7.35;96.52;100634.59;6208521;28;20057;-68
2020/12/14 11:28:33;;;;;;;5.85;2.70;;;;;;;7.63;97.11;100636.91;6198453;28;20053;-68
2020/12/14 11:31:36;;;;;;;7.53;2.20;;;;;;;7.57;96.26;100638.00;6201011;28;20046;-67
2020/12/14 11:34:36;;;;;;;9.30;2.85;;;;;;;7.55;96.37;100639.00;6211199;28;20046;-67
2020/12/14 11:37:37;;;;;;;8.10;2.95;;;;;;;7.48;97.03;100641.00;6210006;28;20043;-67
2020/12/14 11:40:38;;;;;;;4.63;2.55;;;;;;;7.53;97.23;100636.41;6210327;28;20107;-68
2020/12/14 11:43:39;;;;;;;3.42;2.30;;;;;;;7.60;97.91;100639.66;6210239;28;20050;-67
2020/12/14 11:46:41;;;;;;;9.00;2.63;;;;;;;7.64;97.43;100638.59;6210190;28;20302;-68
2020/12/14 11:49:42;;;;;;;7.05;2.33;;;;;;;7.68;97.72;100648.03;6210354;28;20043;-67
2020/12/14 11:52:45;;;;;;;8.18;2.50;;;;;;;7.76;97.54;100645.91;6209723;28;20072;-67
2020/12/14 11:55:46;;;;;;;8.68;2.50;;;;;;;7.89;96.75;100646.22;6210900;28;20054;-68
2020/12/14 11:58:47;;;;;;;4.50;2.22;;;;;;;7.94;96.38;100649.47;6208392;28;20498;-68
2020/12/14 12:01:50;;;;;;;5.22;2.83;;;;;;;7.75;96.84;100640.75;6210470;28;20058;-68
2020/12/14 12:04:51;;;;;;;6.63;2.35;;;;;;;7.87;97.60;100635.00;6211299;28;20752;-68
2020/12/14 12:07:53;;;;;;;4.63;2.60;;;;;;;7.91;96.38;100639.16;6208388;28;20173;-68
2020/12/14 12:10:54;;;;;;;6.05;2.75;;;;;;;7.81;96.08;100636.13;6210105;28;20068;-69
2020/12/14 12:13:55;;;;;;;3.53;1.98;;;;;;;7.96;96.47;100639.81;6208669;28;20046;-68
2020/12/14 12:16:56;;;;;;;4.65;2.38;;;;;;;7.93;96.36;100646.94;6210399;28;20129;-68
2020/12/14 12:19:57;;;;;;;6.57;2.85;;;;;;;7.89;96.41;100662.75;6208463;28;20427;-68
2020/12/14 12:22:58;;;;;;;8.30;2.67;;;;;;;7.84;97.05;100654.28;6209936;28;20085;-67
2020/12/14 12:25:59;;;;;;;6.65;2.35;;;;;;;7.85;97.22;100652.50;6210424;28;20046;-67
2020/12/14 12:29:00;;;;;;;4.80;2.28;;;;;;;7.91;96.92;100654.88;6212587;28;20089;-68
2020/12/14 12:32:02;;;;;;;4.65;2.28;;;;;;;7.98;97.21;100647.59;6214889;28;20049;-68
2020/12/14 12:35:03;;;;;;;6.30;2.22;;;;;;;7.99;97.41;100646.66;6214620;28;20061;-69
2020/12/14 12:38:03;;;;;;;7.35;2.50;;;;;;;7.96;97.68;100647.66;6214584;28;20046;-68
2020/12/14 12:41:05;;;;;;;3.85;2.17;;;;;;;8.03;97.12;100651.69;6208751;28;20042;-68
2020/12/14 12:44:05;;;;;;;6.97;2.15;;;;;;;7.96;97.95;100646.81;6209273;28;20046;-68
2020/12/14 12:47:07;;;;;;;3.10;2.30;;;;;;;7.89;97.34;100652.31;6209147;28;20053;-68
2020/12/14 12:50:08;;;;;;;3.97;2.35;;;;;;;7.95;97.88;100647.72;6208536;28;20050;-67
2020/12/14 12:53:09;;;;;;;7.95;2.50;;;;;;;7.87;98.20;100642.84;6209730;28;20407;-67
2020/12/14 12:56:10;;;;;;;3.83;2.22;;;;;;;7.91;98.65;100644.41;6206655;28;20050;-67
2020/12/14 12:59:11;;;;;;;4.10;1.88;;;;;;;8.03;97.53;100636.00;6207775;28;20418;-68
2020/12/14 13:02:13;;;;;;;3.75;2.13;;;;;;;7.99;97.60;100636.19;6211316;28;20054;-67
2020/12/14 13:05:14;;;;;;;3.20;1.92;;;;;;;8.11;97.39;100638.28;6215007;28;20050;-67
2020/12/14 13:08:15;;;;;;;3.58;1.85;;;;;;;8.15;96.67;100634.59;6211647;28;20052;-67
2020/12/14 13:11:15;;;;;;;1.85;1.58;;;;;;;8.24;96.98;100641.19;6207696;28;20183;-67
2020/12/14 13:14:17;;;;;;;2.15;1.75;;;;;;;8.23;96.42;100634.25;6214405;28;20053;-67
2020/12/14 13:17:18;;;;;;;4.32;1.90;;;;;;;8.31;96.71;100646.09;6211373;28;20430;-66
2020/12/14 13:20:19;;;;;;;5.05;1.98;;;;;;;8.17;97.12;100640.59;6219818;28;20498;-65
2020/12/14 13:23:20;;;;;;;4.57;1.80;;;;;;;8.12;97.55;100640.81;6208377;28;20100;-66
2020/12/14 13:26:21;;;;;;;5.13;1.98;;;;;;;8.17;96.07;100648.47;6210833;28;20050;-67
2020/12/14 13:29:22;;;;;;;2.83;1.90;;;;;;;8.08;96.90;100654.09;6210690;28;20045;-66
2020/12/14 13:32:24;;;;;;;4.25;2.30;;;;;;;8.22;97.00;100651.75;6211423;28;20396;-67
2020/12/14 13:35:25;;;;;;;4.72;2.28;;;;;;;8.14;96.82;100648.63;6208538;28;20045;-66
2020/12/14 13:38:26;;;;;;;5.18;2.13;;;;;;;8.08;96.67;100648.88;6208675;28;20053;-67
2020/12/14 13:41:28;;;;;;;2.72;2.05;;;;;;;8.13;96.33;100652.16;6214169;28;20050;-67
2020/12/14 13:44:29;;;;;;;2.17;1.70;;;;;;;8.15;95.89;100650.31;6212841;28;20057;-67
2020/12/14 13:47:30;;;;;;;2.33;1.75;;;;;;;8.24;96.51;100667.38;6214048;28;20046;-66
2020/12/14 13:50:31;;;;;;;3.28;2.53;;;;;;;8.11;96.68;100660.06;6213962;28;20046;-66
2020/12/14 13:53:33;;;;;;;3.65;2.00;;;;;;;8.12;97.21;100669.59;6212183;28;20050;-66
2020/12/14 13:56:33;;;;;;;4.63;1.98;;;;;;;8.11;97.26;100660.06;6212783;28;20049;-66
2020/12/14 13:59:34;;;;;;;5.60;1.98;;;;;;;8.12;96.95;100666.13;6210794;28;20042;-67
2020/12/14 14:02:36;;;;;;;3.55;1.90;;;;;;;8.08;97.00;100672.44;6211586;28;20506;-66
2020/12/14 14:05:37;;;;;;;3.30;2.13;;;;;;;8.06;96.73;100675.13;6222701;28;20056;-67
2020/12/14 14:08:37;;;;;;;3.67;1.92;;;;;;;8.12;97.22;100669.59;6200419;28;20050;-67